TQPFTAPA

Guest
Details From TQPF - Anguilla/Wallblake
To TAPA - Antigua - V C Bird Intl
Flight Number -
Tags generated
Created
Modified
Stats Distance 97 nm / 180 km
Max Altitude 11,400 ft / 3,475 m
Waypoints 3
Social Downloads 1
Likes 0
Share VATSIM

Download

Looking for another format? Having issues loading an existing format? Contact us
Advertisement - Login to hide

Notes

Basic altitude profile: - Ascent Rate: 2500ft/min - Ascent Speed: 250kts - Cruise Altitude: 8000ft - Cruise Speed: 420kts - Descent Rate: 1500ft/min - Descent Speed: 250kts Options: - Use NATs: yes - Use PACOTS: yes - Use low airways: yes - Use high airways: yes

Route

TQPF ELOPO TAPA

ID Type Via Altitude (ft/m) Position (lat/lon) Dist (leg/tot) Name
O TQPF APT - 0 / 0 18.20480 / -63.05386 - / 0 nm Anguilla/Wallblake
ELOPO FIX - 11,400 / 3,475 17.65006 / -62.55439 43 / 43 nm
O TAPA APT - 0 / 0 17.13674 / -61.79266 53 / 97 nm Antigua - V C Bird Intl

Altitude Profile

Advertisement - Login to hide

TQPF

Details ICAO TQPF (AXA)
Name Anguilla/Wallblake
Region UK (Anguilla)
Timezone America/Anguilla (UTC-4.0)
Stats Elevation 125 ft / 38 m (AMSL)
Location 18.204800° -63.053900°
Runways 1
Magnetic Variation 14.372° W

METAR

TQPF 162300Z 11011KT 9999 SCT018 26/23 Q1015

Decode

TAF

TAF TQPF 161700Z 1618/1718 10016KT 9999 SCT018 PROB30 TEMPO 1618/1623 SHRA

Decode

Departure Runways

ID Width Length Bearing (true/mag) Surface Threshold Overrun Markings Lighting
10 98 ft / 30 m 5,454 ft / 1,662 m 90.65° / 105.02° ASPHALT 492 ft / 150 m 0 ft / 0 m APP EDGE THRESHOLD
28 98 ft / 30 m 5,454 ft / 1,662 m 270.65° / 285.02° ASPHALT 492 ft / 150 m 0 ft / 0 m APP EDGE THRESHOLD

TAPA

Details ICAO TAPA (ANU)
Name Antigua - VC Bird Intl
Region Antigua and Barbuda
Timezone America/Antigua (UTC-4.0)
Stats Elevation 62 ft / 19 m (AMSL)
Location 17.136000° -61.793900°
Runways 1
Magnetic Variation 14.787° W

METAR

TAPA 162300Z 11011KT 9999 FEW020 27/22 Q1014 NOSIG

Decode

TAF

TAF TAPA 161700Z 1618/1718 12013KT 9999 SCT018 PROB30 TEMPO 1618/1623 SHRA

Decode

Destination Runways

ID Width Length Bearing (true/mag) Surface Threshold Overrun Markings Lighting
07 145 ft / 44 m 9,978 ft / 3,041 m 58.24° / 73.03° ASPHALT 1,640 ft / 500 m 0 ft / 0 m PREC-APP CENTERLINE EDGE THRESHOLD
25 145 ft / 44 m 9,978 ft / 3,041 m 238.25° / 253.03° ASPHALT 981 ft / 299 m 0 ft / 0 m PREC-APP CENTERLINE EDGE THRESHOLD

Popular Alternatives